createdAt,value
2022-10-15T00:01:17.621Z,13.98
2022-10-15T00:06:18.283Z,15.60
2022-10-15T00:11:17.805Z,14.80
2022-10-15T00:16:18.124Z,13.73
2022-10-15T00:21:16.561Z,14.75
2022-10-15T00:26:21.874Z,14.30
2022-10-15T00:31:20.839Z,15.20
2022-10-15T00:36:20.393Z,17.17
2022-10-15T00:41:28.241Z,13.60
2022-10-15T00:46:35.550Z,15.65
2022-10-15T00:51:38.284Z,12.80
2022-10-15T00:56:37.730Z,12.93
2022-10-15T01:01:35.166Z,13.65
2022-10-15T01:06:31.891Z,19.58
2022-10-15T01:11:37.502Z,15.57
2022-10-15T01:16:52.880Z,13.32
2022-10-15T01:22:03.377Z,14.20
2022-10-15T01:27:17.762Z,20.67
2022-10-15T01:32:26.842Z,17.85
2022-10-15T01:37:40.537Z,23.55
2022-10-15T01:42:46.398Z,20.67
2022-10-15T01:47:49.559Z,16.00
2022-10-15T01:52:46.284Z,20.88
2022-10-15T01:57:45.067Z,16.75
2022-10-15T02:02:42.110Z,14.43
2022-10-15T02:07:52.995Z,18.23
2022-10-15T02:13:16.654Z,15.52
2022-10-15T02:18:21.202Z,20.77
2022-10-15T02:23:25.683Z,16.83
2022-10-15T02:28:25.760Z,18.20
2022-10-15T02:33:24.262Z,18.92
2022-10-15T02:38:24.518Z,19.33
2022-10-15T02:43:21.894Z,19.50
2022-10-15T02:48:18.416Z,28.53
2022-10-15T02:53:14.830Z,21.42
2022-10-15T02:58:11.298Z,23.42
2022-10-15T03:03:07.675Z,21.95
2022-10-15T03:08:04.545Z,26.38
2022-10-15T03:13:05.796Z,32.42
2022-10-15T03:18:02.171Z,37.75
2022-10-15T03:22:58.609Z,54.70
2022-10-15T03:27:54.949Z,48.28
2022-10-15T03:32:51.308Z,58.70
2022-10-15T03:37:48.029Z,61.08
2022-10-15T03:42:44.393Z,54.90
2022-10-15T03:47:40.763Z,76.57
2022-10-15T03:52:38.054Z,77.35
2022-10-15T03:57:34.428Z,84.00
2022-10-15T04:02:31.691Z,98.13
2022-10-15T04:07:28.093Z,92.68
2022-10-15T04:12:25.171Z,95.93
2022-10-15T04:17:21.916Z,82.93
2022-10-15T04:22:18.573Z,73.30
2022-10-15T04:32:16.973Z,52.60
2022-10-15T04:37:13.780Z,67.38
2022-10-15T04:42:10.150Z,57.05
2022-10-15T04:47:06.528Z,58.08
2022-10-15T04:52:02.905Z,71.43
2022-10-15T04:56:59.333Z,60.45
2022-10-15T05:01:55.833Z,59.65
2022-10-15T05:06:52.334Z,63.58
2022-10-15T05:11:48.819Z,70.95
2022-10-15T05:16:45.168Z,61.13
2022-10-15T05:21:41.573Z,74.22
2022-10-15T05:26:38.367Z,60.67
2022-10-15T05:31:34.832Z,56.50
2022-10-15T05:36:31.238Z,61.25
2022-10-15T05:41:29.000Z,70.47
2022-10-15T05:46:26.002Z,64.28
2022-10-15T05:51:25.225Z,53.55
2022-10-15T05:56:22.166Z,54.83
2022-10-15T06:01:19.827Z,65.60
2022-10-15T06:06:24.445Z,70.70
2022-10-15T06:11:21.711Z,67.90
2022-10-15T06:16:22.643Z,70.97
2022-10-15T06:21:20.951Z,60.67
2022-10-15T06:26:17.485Z,52.28
2022-10-15T06:31:13.939Z,48.70
2022-10-15T06:36:11.231Z,50.22
2022-10-15T06:41:07.841Z,50.87
2022-10-15T06:46:06.308Z,57.67
2022-10-15T06:51:03.666Z,50.05
2022-10-15T06:56:02.311Z,47.93
2022-10-15T07:01:03.125Z,60.40
2022-10-15T07:06:05.234Z,71.47
2022-10-15T07:11:06.901Z,67.43
2022-10-15T07:16:09.143Z,60.05
2022-10-15T07:21:07.975Z,74.53
2022-10-15T07:26:04.721Z,67.95
2022-10-15T07:31:06.423Z,74.50
2022-10-15T07:36:08.547Z,59.90
2022-10-15T07:41:05.273Z,68.07
2022-10-15T07:46:02.581Z,67.75
2022-10-15T07:51:01.332Z,67.47
2022-10-15T07:56:02.355Z,73.05
2022-10-15T08:01:02.541Z,66.03
2022-10-15T08:06:04.012Z,61.70
2022-10-15T08:11:05.801Z,64.22
2022-10-15T08:16:02.265Z,61.08
2022-10-15T08:21:00.541Z,58.35
2022-10-15T08:26:00.898Z,60.17
2022-10-15T08:31:04.579Z,55.17
2022-10-15T08:36:05.290Z,45.28
2022-10-15T08:41:03.343Z,48.90
2022-10-15T08:51:11.379Z,40.95
2022-10-15T08:56:19.624Z,43.70
2022-10-15T09:01:24.807Z,37.20
2022-10-15T09:06:28.835Z,34.75
2022-10-15T09:12:09.035Z,34.90
2022-10-15T09:17:14.597Z,27.50
2022-10-15T09:22:16.984Z,28.02
2022-10-15T09:27:33.430Z,27.13
2022-10-15T09:32:54.524Z,28.15
2022-10-15T09:38:17.903Z,27.60
2022-10-15T09:43:19.961Z,26.08
2022-10-15T09:48:19.337Z,27.98
2022-10-15T09:53:15.801Z,26.63
2022-10-15T09:58:18.351Z,26.23
2022-10-15T10:03:15.596Z,25.83
2022-10-15T10:08:27.632Z,24.27
2022-10-15T10:13:28.045Z,25.23
2022-10-15T10:18:25.692Z,22.35
2022-10-15T10:23:24.485Z,19.42
2022-10-15T10:28:29.952Z,18.98
2022-10-15T10:33:45.980Z,17.27
2022-10-15T10:38:42.462Z,15.00
2022-10-15T10:43:41.233Z,13.63
2022-10-15T10:48:46.827Z,12.68
2022-10-15T10:53:49.307Z,11.10
2022-10-15T10:58:45.725Z,11.52
2022-10-15T11:03:45.267Z,8.10
2022-10-15T11:09:06.166Z,9.48
2022-10-15T11:14:46.897Z,8.43
2022-10-15T11:20:20.721Z,8.13
2022-10-15T11:25:29.308Z,10.32
2022-10-15T11:31:03.144Z,6.60
2022-10-15T11:36:02.272Z,4.53
2022-10-15T11:41:15.326Z,5.13
2022-10-15T11:46:34.862Z,3.72
2022-10-15T11:51:40.663Z,5.43
2022-10-15T11:56:41.663Z,6.80
2022-10-15T12:01:48.482Z,2.38
2022-10-15T12:06:49.887Z,2.00
2022-10-15T12:11:56.943Z,1.60
2022-10-15T12:22:11.604Z,1.65
2022-10-15T12:32:28.795Z,1.73
2022-10-15T12:37:28.565Z,1.25
2022-10-15T12:42:37.619Z,0.75
2022-10-15T12:47:55.364Z,0.60
2022-10-15T12:52:56.328Z,1.88
2022-10-15T12:58:00.051Z,0.75
2022-10-15T13:03:01.151Z,0.65
2022-10-15T13:08:00.702Z,0.40
2022-10-15T13:13:06.098Z,7.82
2022-10-15T13:18:12.793Z,0.50
2022-10-15T13:23:30.125Z,3.40
2022-10-15T13:28:34.514Z,0.32
2022-10-15T13:33:31.404Z,1.45
2022-10-15T13:38:28.870Z,0.60
2022-10-15T13:43:27.762Z,3.17
2022-10-15T13:48:27.071Z,1.40
2022-10-15T13:53:50.446Z,0.65
2022-10-15T13:58:47.567Z,0.70
2022-10-15T14:03:49.920Z,0.63
2022-10-15T14:08:48.376Z,0.52
2022-10-15T14:14:02.823Z,0.40
2022-10-15T14:19:10.120Z,7.63
2022-10-15T14:24:12.942Z,0.43
2022-10-15T14:29:38.029Z,1.13
2022-10-15T14:34:34.602Z,9.13
2022-10-15T14:39:36.313Z,1.30
2022-10-15T14:44:47.575Z,2.00
2022-10-15T14:49:43.994Z,2.65
2022-10-15T14:54:51.070Z,0.52
2022-10-15T14:59:47.621Z,0.60
2022-10-15T15:04:51.114Z,0.47
2022-10-15T15:09:48.783Z,0.65
2022-10-15T15:14:45.189Z,1.35
2022-10-15T15:19:43.949Z,3.90
2022-10-15T15:24:41.199Z,2.05
2022-10-15T15:29:37.563Z,2.87
2022-10-15T15:34:33.939Z,1.95
2022-10-15T15:39:30.310Z,1.60
2022-10-15T15:44:26.687Z,0.47
2022-10-15T15:49:23.572Z,0.82
2022-10-15T15:54:19.964Z,0.17
2022-10-15T15:59:19.252Z,0.80
2022-10-15T16:04:15.857Z,1.05
2022-10-15T16:09:12.296Z,0.25
2022-10-15T16:14:09.499Z,0.40
2022-10-15T16:19:06.081Z,0.38
2022-10-15T16:24:02.541Z,0.52
2022-10-15T16:28:58.997Z,0.57
2022-10-15T16:33:55.561Z,0.65
2022-10-15T16:38:51.922Z,0.73
2022-10-15T16:43:49.194Z,2.33
2022-10-15T16:48:51.315Z,1.15
2022-10-15T16:53:48.297Z,3.33
2022-10-15T16:58:44.826Z,2.10
2022-10-15T17:03:42.318Z,2.70
2022-10-15T17:08:43.047Z,2.53
2022-10-15T17:13:39.941Z,1.77
2022-10-15T17:18:36.378Z,1.55
2022-10-15T17:23:33.458Z,3.70
2022-10-15T17:28:29.807Z,1.00
2022-10-15T17:33:26.271Z,4.35
2022-10-15T17:38:22.814Z,3.22
2022-10-15T17:43:19.170Z,4.38
2022-10-15T17:48:15.733Z,2.65
2022-10-15T17:53:13.290Z,3.85
2022-10-15T17:58:09.906Z,2.65
2022-10-15T18:03:06.341Z,2.17
2022-10-15T18:08:03.950Z,4.15
2022-10-15T18:13:00.320Z,4.90
2022-10-15T18:17:57.143Z,2.40
2022-10-15T18:22:53.846Z,1.98
2022-10-15T18:27:50.307Z,3.30
2022-10-15T18:32:46.707Z,3.00
2022-10-15T18:37:43.180Z,2.55
2022-10-15T18:42:39.572Z,7.93
2022-10-15T18:47:35.995Z,3.22
2022-10-15T18:52:39.922Z,4.40
2022-10-15T18:57:36.948Z,5.13
2022-10-15T19:02:33.400Z,3.92
2022-10-15T19:07:31.684Z,1.90
2022-10-15T19:12:28.552Z,8.40
2022-10-15T19:17:25.027Z,1.67
2022-10-15T19:22:21.491Z,3.17
2022-10-15T19:27:17.849Z,4.78
2022-10-15T19:32:14.233Z,4.72
2022-10-15T19:37:10.655Z,8.52
2022-10-15T19:42:07.026Z,2.83
2022-10-15T19:47:03.399Z,1.50
2022-10-15T19:52:01.185Z,1.67
2022-10-15T19:56:57.828Z,2.13
2022-10-15T20:01:54.176Z,3.08
2022-10-15T20:06:52.730Z,0.70
2022-10-15T20:11:49.187Z,0.90
2022-10-15T20:16:45.559Z,1.05
2022-10-15T20:21:42.025Z,3.20
2022-10-15T20:26:38.496Z,2.40
2022-10-15T20:31:35.804Z,2.75
2022-10-15T20:36:32.220Z,2.67
2022-10-15T20:41:29.002Z,2.80
2022-10-15T20:46:39.806Z,1.48
2022-10-15T20:51:40.103Z,1.55
2022-10-15T20:56:36.604Z,0.93
2022-10-15T21:01:34.312Z,0.75
2022-10-15T21:06:31.120Z,2.97
2022-10-15T21:11:27.670Z,1.17
2022-10-15T21:16:27.413Z,1.00
2022-10-15T21:21:25.038Z,1.00
2022-10-15T21:26:21.777Z,2.20
2022-10-15T21:31:18.142Z,1.67
2022-10-15T21:36:21.974Z,1.33
2022-10-15T21:41:18.771Z,1.23
2022-10-15T21:46:15.316Z,2.30
2022-10-15T21:51:13.998Z,5.22
2022-10-15T21:56:10.454Z,2.63
2022-10-15T22:01:23.606Z,4.63
2022-10-15T22:06:21.089Z,2.03
2022-10-15T22:11:23.632Z,4.13
2022-10-15T22:16:23.393Z,1.67
2022-10-15T22:21:23.225Z,2.50
2022-10-15T22:26:21.916Z,5.93
2022-10-15T22:31:18.303Z,2.53
2022-10-15T22:36:20.026Z,2.00
2022-10-15T22:41:16.380Z,3.22
2022-10-15T22:46:13.050Z,2.70
2022-10-15T22:51:12.913Z,5.00
2022-10-15T22:56:14.708Z,5.10
2022-10-15T23:01:15.772Z,5.35
2022-10-15T23:06:13.210Z,3.45
2022-10-15T23:11:13.861Z,4.40
2022-10-15T23:16:17.764Z,5.28
2022-10-15T23:21:20.555Z,5.18
2022-10-15T23:26:16.961Z,5.43
2022-10-15T23:31:21.197Z,8.32
2022-10-15T23:36:18.190Z,6.50
2022-10-15T23:41:15.388Z,7.35
2022-10-15T23:46:11.910Z,7.22
2022-10-15T23:51:23.402Z,9.35
2022-10-15T23:56:21.118Z,4.05
